sensor_id;sensor_type;location;lat;lon;timestamp;temperature;humidity
81488;DHT22;70897;52.464;13.428;2023-08-20T00:01:26;24.60;84.40
81488;DHT22;70897;52.464;13.428;2023-08-20T00:04:12;24.60;85.00
81488;DHT22;70897;52.464;13.428;2023-08-20T00:06:58;24.60;84.70
81488;DHT22;70897;52.464;13.428;2023-08-20T00:09:43;24.50;85.10
81488;DHT22;70897;52.464;13.428;2023-08-20T00:12:27;24.50;85.30
81488;DHT22;70897;52.464;13.428;2023-08-20T00:15:13;24.40;85.40
81488;DHT22;70897;52.464;13.428;2023-08-20T00:17:57;24.40;85.90
81488;DHT22;70897;52.464;13.428;2023-08-20T00:20:43;24.30;86.30
81488;DHT22;70897;52.464;13.428;2023-08-20T00:23:30;24.30;86.40
81488;DHT22;70897;52.464;13.428;2023-08-20T00:26:15;24.30;86.80
81488;DHT22;70897;52.464;13.428;2023-08-20T00:29:00;24.10;86.80
81488;DHT22;70897;52.464;13.428;2023-08-20T00:31:45;24.10;87.10
81488;DHT22;70897;52.464;13.428;2023-08-20T00:34:30;24.00;87.60
81488;DHT22;70897;52.464;13.428;2023-08-20T00:37:15;23.90;88.00
81488;DHT22;70897;52.464;13.428;2023-08-20T00:40:00;23.90;88.30
81488;DHT22;70897;52.464;13.428;2023-08-20T00:42:45;23.80;88.80
81488;DHT22;70897;52.464;13.428;2023-08-20T00:45:30;23.80;88.90
81488;DHT22;70897;52.464;13.428;2023-08-20T00:48:15;23.70;89.10
81488;DHT22;70897;52.464;13.428;2023-08-20T00:51:02;23.70;89.40
81488;DHT22;70897;52.464;13.428;2023-08-20T00:53:47;23.60;89.50
81488;DHT22;70897;52.464;13.428;2023-08-20T00:56:32;23.70;89.30
81488;DHT22;70897;52.464;13.428;2023-08-20T00:59:17;23.70;89.40
81488;DHT22;70897;52.464;13.428;2023-08-20T01:02:02;23.60;89.40
81488;DHT22;70897;52.464;13.428;2023-08-20T01:04:49;23.60;89.30
81488;DHT22;70897;52.464;13.428;2023-08-20T01:11:00;23.70;89.30
81488;DHT22;70897;52.464;13.428;2023-08-20T01:13:46;23.70;89.40
81488;DHT22;70897;52.464;13.428;2023-08-20T01:16:31;23.70;89.50
81488;DHT22;70897;52.464;13.428;2023-08-20T01:19:18;23.70;89.90
81488;DHT22;70897;52.464;13.428;2023-08-20T01:22:36;23.70;90.10
81488;DHT22;70897;52.464;13.428;2023-08-20T01:29:05;23.60;91.00
81488;DHT22;70897;52.464;13.428;2023-08-20T01:31:53;23.60;91.10
81488;DHT22;70897;52.464;13.428;2023-08-20T01:34:38;23.60;91.90
81488;DHT22;70897;52.464;13.428;2023-08-20T01:37:24;23.60;92.30
81488;DHT22;70897;52.464;13.428;2023-08-20T01:40:09;23.60;92.80
81488;DHT22;70897;52.464;13.428;2023-08-20T01:42:56;23.60;93.00
81488;DHT22;70897;52.464;13.428;2023-08-20T01:45:41;23.60;93.10
81488;DHT22;70897;52.464;13.428;2023-08-20T01:48:26;23.60;93.20
81488;DHT22;70897;52.464;13.428;2023-08-20T01:51:11;23.60;93.50
81488;DHT22;70897;52.464;13.428;2023-08-20T01:53:56;23.50;93.70
81488;DHT22;70897;52.464;13.428;2023-08-20T01:56:41;23.50;93.80
81488;DHT22;70897;52.464;13.428;2023-08-20T01:59:26;23.50;93.90
81488;DHT22;70897;52.464;13.428;2023-08-20T02:02:12;23.50;94.10
81488;DHT22;70897;52.464;13.428;2023-08-20T02:04:57;23.50;94.20
81488;DHT22;70897;52.464;13.428;2023-08-20T02:07:42;23.50;94.30
81488;DHT22;70897;52.464;13.428;2023-08-20T02:10:27;23.50;94.30
81488;DHT22;70897;52.464;13.428;2023-08-20T02:13:12;23.40;94.20
81488;DHT22;70897;52.464;13.428;2023-08-20T02:15:59;23.50;94.50
81488;DHT22;70897;52.464;13.428;2023-08-20T02:18:46;23.40;94.60
81488;DHT22;70897;52.464;13.428;2023-08-20T02:21:31;23.40;94.60
81488;DHT22;70897;52.464;13.428;2023-08-20T02:24:16;23.40;94.70
81488;DHT22;70897;52.464;13.428;2023-08-20T02:27:01;23.30;94.70
81488;DHT22;70897;52.464;13.428;2023-08-20T02:29:46;23.30;94.90
81488;DHT22;70897;52.464;13.428;2023-08-20T02:32:33;23.30;95.00
81488;DHT22;70897;52.464;13.428;2023-08-20T02:35:18;23.30;95.10
81488;DHT22;70897;52.464;13.428;2023-08-20T02:38:07;23.20;95.20
81488;DHT22;70897;52.464;13.428;2023-08-20T02:40:54;23.20;95.40
81488;DHT22;70897;52.464;13.428;2023-08-20T02:43:39;23.20;95.50
81488;DHT22;70897;52.464;13.428;2023-08-20T02:46:24;23.20;95.50
81488;DHT22;70897;52.464;13.428;2023-08-20T02:49:09;23.20;95.50
81488;DHT22;70897;52.464;13.428;2023-08-20T02:51:53;23.10;95.70
81488;DHT22;70897;52.464;13.428;2023-08-20T02:54:38;23.10;95.80
81488;DHT22;70897;52.464;13.428;2023-08-20T02:57:24;23.00;95.90
81488;DHT22;70897;52.464;13.428;2023-08-20T03:00:09;23.00;96.00
81488;DHT22;70897;52.464;13.428;2023-08-20T03:02:58;23.00;96.10
81488;DHT22;70897;52.464;13.428;2023-08-20T03:05:43;23.00;96.20
81488;DHT22;70897;52.464;13.428;2023-08-20T03:08:28;22.90;96.20
81488;DHT22;70897;52.464;13.428;2023-08-20T03:11:13;22.90;96.30
81488;DHT22;70897;52.464;13.428;2023-08-20T03:13:58;22.80;96.50
81488;DHT22;70897;52.464;13.428;2023-08-20T03:16:43;22.80;96.50
81488;DHT22;70897;52.464;13.428;2023-08-20T03:19:34;22.70;96.70
81488;DHT22;70897;52.464;13.428;2023-08-20T03:22:22;22.70;96.80
81488;DHT22;70897;52.464;13.428;2023-08-20T03:25:08;22.70;96.90
81488;DHT22;70897;52.464;13.428;2023-08-20T03:27:53;22.70;96.90
81488;DHT22;70897;52.464;13.428;2023-08-20T03:30:38;22.70;97.00
81488;DHT22;70897;52.464;13.428;2023-08-20T03:33:24;22.70;97.10
81488;DHT22;70897;52.464;13.428;2023-08-20T03:36:10;22.60;97.20
81488;DHT22;70897;52.464;13.428;2023-08-20T03:38:54;22.60;97.30
81488;DHT22;70897;52.464;13.428;2023-08-20T03:41:40;22.60;97.40
81488;DHT22;70897;52.464;13.428;2023-08-20T03:44:25;22.50;97.60
81488;DHT22;70897;52.464;13.428;2023-08-20T03:47:10;22.40;97.70
81488;DHT22;70897;52.464;13.428;2023-08-20T03:49:55;22.40;98.10
81488;DHT22;70897;52.464;13.428;2023-08-20T03:52:40;22.30;98.30
81488;DHT22;70897;52.464;13.428;2023-08-20T03:55:26;22.30;98.50
81488;DHT22;70897;52.464;13.428;2023-08-20T03:58:11;22.20;98.60
81488;DHT22;70897;52.464;13.428;2023-08-20T04:00:56;22.20;98.70
81488;DHT22;70897;52.464;13.428;2023-08-20T04:03:41;22.20;98.80
81488;DHT22;70897;52.464;13.428;2023-08-20T04:06:26;22.20;99.10
81488;DHT22;70897;52.464;13.428;2023-08-20T04:09:11;22.10;99.00
81488;DHT22;70897;52.464;13.428;2023-08-20T04:11:58;22.20;99.20
81488;DHT22;70897;52.464;13.428;2023-08-20T04:14:42;22.10;99.20
81488;DHT22;70897;52.464;13.428;2023-08-20T04:17:27;22.10;99.30
81488;DHT22;70897;52.464;13.428;2023-08-20T04:20:13;22.10;99.30
81488;DHT22;70897;52.464;13.428;2023-08-20T04:22:58;22.10;99.40
81488;DHT22;70897;52.464;13.428;2023-08-20T04:25:43;22.10;99.40
81488;DHT22;70897;52.464;13.428;2023-08-20T04:28:30;22.10;99.40
81488;DHT22;70897;52.464;13.428;2023-08-20T04:31:15;22.10;99.50
81488;DHT22;70897;52.464;13.428;2023-08-20T04:34:08;22.10;99.30
81488;DHT22;70897;52.464;13.428;2023-08-20T04:37:00;22.20;99.30
81488;DHT22;70897;52.464;13.428;2023-08-20T04:39:45;22.30;99.00
81488;DHT22;70897;52.464;13.428;2023-08-20T04:42:31;22.40;98.70
81488;DHT22;70897;52.464;13.428;2023-08-20T04:45:16;22.50;98.50
81488;DHT22;70897;52.464;13.428;2023-08-20T04:48:04;22.60;98.40
81488;DHT22;70897;52.464;13.428;2023-08-20T04:50:50;22.60;98.10
81488;DHT22;70897;52.464;13.428;2023-08-20T04:53:35;22.70;98.00
81488;DHT22;70897;52.464;13.428;2023-08-20T04:56:20;22.80;97.80
81488;DHT22;70897;52.464;13.428;2023-08-20T04:59:05;22.80;97.60
81488;DHT22;70897;52.464;13.428;2023-08-20T05:02:16;22.90;97.50
81488;DHT22;70897;52.464;13.428;2023-08-20T05:05:10;22.90;97.30
81488;DHT22;70897;52.464;13.428;2023-08-20T05:07:55;22.90;97.50
81488;DHT22;70897;52.464;13.428;2023-08-20T05:10:41;23.10;97.30
81488;DHT22;70897;52.464;13.428;2023-08-20T05:13:26;23.30;97.10
81488;DHT22;70897;52.464;13.428;2023-08-20T05:16:12;23.70;96.30
81488;DHT22;70897;52.464;13.428;2023-08-20T05:18:57;24.00;95.10
81488;DHT22;70897;52.464;13.428;2023-08-20T05:21:42;24.40;94.00
81488;DHT22;70897;52.464;13.428;2023-08-20T05:24:26;24.80;92.70
81488;DHT22;70897;52.464;13.428;2023-08-20T05:27:12;25.20;91.70
81488;DHT22;70897;52.464;13.428;2023-08-20T05:29:59;25.40;90.70
81488;DHT22;70897;52.464;13.428;2023-08-20T05:32:44;25.60;90.20
81488;DHT22;70897;52.464;13.428;2023-08-20T05:35:30;25.90;89.30
81488;DHT22;70897;52.464;13.428;2023-08-20T05:38:15;26.20;88.00
81488;DHT22;70897;52.464;13.428;2023-08-20T05:41:00;26.40;85.90
81488;DHT22;70897;52.464;13.428;2023-08-20T05:43:45;26.70;84.70
81488;DHT22;70897;52.464;13.428;2023-08-20T05:46:30;26.90;83.30
81488;DHT22;70897;52.464;13.428;2023-08-20T05:49:15;27.10;82.10
81488;DHT22;70897;52.464;13.428;2023-08-20T05:52:01;27.30;81.00
81488;DHT22;70897;52.464;13.428;2023-08-20T05:54:47;27.80;78.40
81488;DHT22;70897;52.464;13.428;2023-08-20T05:57:33;27.70;78.10
81488;DHT22;70897;52.464;13.428;2023-08-20T06:00:18;27.30;79.50
81488;DHT22;70897;52.464;13.428;2023-08-20T06:03:05;27.50;78.90
81488;DHT22;70897;52.464;13.428;2023-08-20T06:05:52;27.50;78.60
81488;DHT22;70897;52.464;13.428;2023-08-20T06:08:37;28.00;77.20
81488;DHT22;70897;52.464;13.428;2023-08-20T06:11:21;28.00;76.50
81488;DHT22;70897;52.464;13.428;2023-08-20T06:14:06;27.70;77.60
81488;DHT22;70897;52.464;13.428;2023-08-20T06:16:51;27.30;78.90
81488;DHT22;70897;52.464;13.428;2023-08-20T06:19:36;26.70;81.20
81488;DHT22;70897;52.464;13.428;2023-08-20T06:22:22;26.30;82.50
81488;DHT22;70897;52.464;13.428;2023-08-20T06:25:07;26.20;83.60
81488;DHT22;70897;52.464;13.428;2023-08-20T06:27:52;26.50;83.50
81488;DHT22;70897;52.464;13.428;2023-08-20T06:30:37;27.10;81.10
81488;DHT22;70897;52.464;13.428;2023-08-20T06:33:22;27.00;79.90
81488;DHT22;70897;52.464;13.428;2023-08-20T06:36:07;26.80;80.80
81488;DHT22;70897;52.464;13.428;2023-08-20T06:38:52;26.50;81.70
81488;DHT22;70897;52.464;13.428;2023-08-20T06:41:37;26.50;82.10
81488;DHT22;70897;52.464;13.428;2023-08-20T06:44:29;26.50;82.50
81488;DHT22;70897;52.464;13.428;2023-08-20T06:47:14;26.30;83.20
81488;DHT22;70897;52.464;13.428;2023-08-20T06:49:59;26.20;83.40
81488;DHT22;70897;52.464;13.428;2023-08-20T06:52:44;26.20;83.90
81488;DHT22;70897;52.464;13.428;2023-08-20T06:55:29;26.00;84.50
81488;DHT22;70897;52.464;13.428;2023-08-20T06:58:14;25.90;84.80
81488;DHT22;70897;52.464;13.428;2023-08-20T07:00:59;26.00;84.50
81488;DHT22;70897;52.464;13.428;2023-08-20T07:03:51;26.00;84.20
81488;DHT22;70897;52.464;13.428;2023-08-20T07:06:36;25.80;85.10
81488;DHT22;70897;52.464;13.428;2023-08-20T07:09:21;25.60;86.10
81488;DHT22;70897;52.464;13.428;2023-08-20T07:12:07;25.60;86.20
81488;DHT22;70897;52.464;13.428;2023-08-20T07:14:52;25.30;87.00
81488;DHT22;70897;52.464;13.428;2023-08-20T07:17:37;25.40;87.30
81488;DHT22;70897;52.464;13.428;2023-08-20T07:20:23;25.40;87.00
81488;DHT22;70897;52.464;13.428;2023-08-20T07:23:08;25.50;86.40
81488;DHT22;70897;52.464;13.428;2023-08-20T07:26:05;25.90;84.60
81488;DHT22;70897;52.464;13.428;2023-08-20T07:28:50;26.30;82.70
81488;DHT22;70897;52.464;13.428;2023-08-20T07:31:41;26.50;81.10
81488;DHT22;70897;52.464;13.428;2023-08-20T07:34:26;26.60;81.30
81488;DHT22;70897;52.464;13.428;2023-08-20T07:37:11;26.50;81.30
81488;DHT22;70897;52.464;13.428;2023-08-20T07:39:56;26.60;80.30
81488;DHT22;70897;52.464;13.428;2023-08-20T07:42:41;27.00;79.60
81488;DHT22;70897;52.464;13.428;2023-08-20T07:45:26;27.10;78.70
81488;DHT22;70897;52.464;13.428;2023-08-20T07:48:11;26.90;78.60
81488;DHT22;70897;52.464;13.428;2023-08-20T07:50:56;26.70;79.00
81488;DHT22;70897;52.464;13.428;2023-08-20T07:53:41;26.40;79.70
81488;DHT22;70897;52.464;13.428;2023-08-20T07:56:26;26.20;81.40
81488;DHT22;70897;52.464;13.428;2023-08-20T07:59:11;26.00;82.50
81488;DHT22;70897;52.464;13.428;2023-08-20T08:01:56;25.90;81.80
81488;DHT22;70897;52.464;13.428;2023-08-20T08:04:42;25.80;83.10
81488;DHT22;70897;52.464;13.428;2023-08-20T08:07:27;26.20;81.90
81488;DHT22;70897;52.464;13.428;2023-08-20T08:10:12;26.90;79.50
81488;DHT22;70897;52.464;13.428;2023-08-20T08:12:57;27.60;76.40
81488;DHT22;70897;52.464;13.428;2023-08-20T08:15:42;28.00;73.90
81488;DHT22;70897;52.464;13.428;2023-08-20T08:18:27;29.20;69.60
81488;DHT22;70897;52.464;13.428;2023-08-20T08:21:12;30.40;65.00
81488;DHT22;70897;52.464;13.428;2023-08-20T08:23:57;31.20;61.40
81488;DHT22;70897;52.464;13.428;2023-08-20T08:26:42;31.40;59.90
81488;DHT22;70897;52.464;13.428;2023-08-20T08:29:27;32.30;57.40
81488;DHT22;70897;52.464;13.428;2023-08-20T08:32:12;32.80;54.90
81488;DHT22;70897;52.464;13.428;2023-08-20T08:34:57;33.40;54.20
81488;DHT22;70897;52.464;13.428;2023-08-20T08:37:42;33.50;53.20
81488;DHT22;70897;52.464;13.428;2023-08-20T08:40:29;33.50;53.00
81488;DHT22;70897;52.464;13.428;2023-08-20T08:43:14;33.70;52.00
81488;DHT22;70897;52.464;13.428;2023-08-20T08:46:04;33.40;51.90
81488;DHT22;70897;52.464;13.428;2023-08-20T08:48:51;33.70;51.50
81488;DHT22;70897;52.464;13.428;2023-08-20T08:51:37;34.00;50.80
81488;DHT22;70897;52.464;13.428;2023-08-20T08:54:23;34.30;50.00
81488;DHT22;70897;52.464;13.428;2023-08-20T08:57:08;34.50;49.60
81488;DHT22;70897;52.464;13.428;2023-08-20T08:59:53;34.90;48.80
81488;DHT22;70897;52.464;13.428;2023-08-20T09:02:38;35.40;47.50
81488;DHT22;70897;52.464;13.428;2023-08-20T09:05:23;35.40;46.90
81488;DHT22;70897;52.464;13.428;2023-08-20T09:08:08;35.80;45.40
81488;DHT22;70897;52.464;13.428;2023-08-20T09:10:55;36.40;43.90
81488;DHT22;70897;52.464;13.428;2023-08-20T09:13:42;36.40;43.80
81488;DHT22;70897;52.464;13.428;2023-08-20T09:16:30;35.80;44.40
81488;DHT22;70897;52.464;13.428;2023-08-20T09:19:15;35.10;45.70
81488;DHT22;70897;52.464;13.428;2023-08-20T09:22:00;34.90;47.00
81488;DHT22;70897;52.464;13.428;2023-08-20T09:24:47;34.70;47.20
81488;DHT22;70897;52.464;13.428;2023-08-20T09:27:39;34.70;45.60
81488;DHT22;70897;52.464;13.428;2023-08-20T09:30:25;34.20;45.70
81488;DHT22;70897;52.464;13.428;2023-08-20T09:33:12;34.00;46.60
81488;DHT22;70897;52.464;13.428;2023-08-20T09:35:58;34.50;47.70
81488;DHT22;70897;52.464;13.428;2023-08-20T09:38:43;35.40;45.80
81488;DHT22;70897;52.464;13.428;2023-08-20T09:41:29;36.30;42.90
81488;DHT22;70897;52.464;13.428;2023-08-20T09:44:16;36.80;43.80
81488;DHT22;70897;52.464;13.428;2023-08-20T09:47:03;37.30;40.70
81488;DHT22;70897;52.464;13.428;2023-08-20T09:49:50;37.90;39.40
81488;DHT22;70897;52.464;13.428;2023-08-20T09:52:48;37.60;40.60
81488;DHT22;70897;52.464;13.428;2023-08-20T09:55:39;38.50;37.60
81488;DHT22;70897;52.464;13.428;2023-08-20T09:58:25;38.80;35.60
81488;DHT22;70897;52.464;13.428;2023-08-20T10:01:12;39.30;37.00
81488;DHT22;70897;52.464;13.428;2023-08-20T10:03:57;39.70;36.20
81488;DHT22;70897;52.464;13.428;2023-08-20T10:06:43;40.00;34.90
81488;DHT22;70897;52.464;13.428;2023-08-20T10:09:28;40.60;33.40
81488;DHT22;70897;52.464;13.428;2023-08-20T10:12:13;41.20;32.80
81488;DHT22;70897;52.464;13.428;2023-08-20T10:14:59;41.90;31.00
81488;DHT22;70897;52.464;13.428;2023-08-20T10:17:45;41.70;31.80
81488;DHT22;70897;52.464;13.428;2023-08-20T10:20:31;41.80;31.30
81488;DHT22;70897;52.464;13.428;2023-08-20T10:23:20;42.20;31.00
81488;DHT22;70897;52.464;13.428;2023-08-20T10:26:09;42.80;30.00
81488;DHT22;70897;52.464;13.428;2023-08-20T10:32:17;43.20;29.00
81488;DHT22;70897;52.464;13.428;2023-08-20T10:35:03;43.40;28.30
81488;DHT22;70897;52.464;13.428;2023-08-20T10:38:11;43.60;29.00
81488;DHT22;70897;52.464;13.428;2023-08-20T10:40:58;43.90;27.40
81488;DHT22;70897;52.464;13.428;2023-08-20T10:43:47;43.30;27.80
81488;DHT22;70897;52.464;13.428;2023-08-20T10:46:33;42.90;28.20
81488;DHT22;70897;52.464;13.428;2023-08-20T10:49:21;43.30;27.80
81488;DHT22;70897;52.464;13.428;2023-08-20T10:52:06;43.70;27.80
81488;DHT22;70897;52.464;13.428;2023-08-20T10:54:51;44.00;28.20
81488;DHT22;70897;52.464;13.428;2023-08-20T10:57:39;44.20;27.00
81488;DHT22;70897;52.464;13.428;2023-08-20T11:00:24;44.30;26.70
81488;DHT22;70897;52.464;13.428;2023-08-20T11:03:09;44.50;26.50
81488;DHT22;70897;52.464;13.428;2023-08-20T11:05:55;43.40;26.70
81488;DHT22;70897;52.464;13.428;2023-08-20T11:08:41;42.70;28.60
81488;DHT22;70897;52.464;13.428;2023-08-20T11:11:26;41.40;29.60
81488;DHT22;70897;52.464;13.428;2023-08-20T11:14:13;40.20;30.80
81488;DHT22;70897;52.464;13.428;2023-08-20T11:16:58;40.10;30.80
81488;DHT22;70897;52.464;13.428;2023-08-20T11:19:44;40.80;30.00
81488;DHT22;70897;52.464;13.428;2023-08-20T11:22:28;41.30;29.20
81488;DHT22;70897;52.464;13.428;2023-08-20T11:25:14;42.60;28.90
81488;DHT22;70897;52.464;13.428;2023-08-20T11:27:58;42.50;28.00
81488;DHT22;70897;52.464;13.428;2023-08-20T11:30:46;43.60;28.30
81488;DHT22;70897;52.464;13.428;2023-08-20T11:33:31;43.70;26.90
81488;DHT22;70897;52.464;13.428;2023-08-20T11:36:17;44.10;26.90
81488;DHT22;70897;52.464;13.428;2023-08-20T11:39:02;44.70;25.90
81488;DHT22;70897;52.464;13.428;2023-08-20T11:41:47;45.00;25.70
81488;DHT22;70897;52.464;13.428;2023-08-20T11:44:42;45.30;25.30
81488;DHT22;70897;52.464;13.428;2023-08-20T11:47:28;45.00;25.10
81488;DHT22;70897;52.464;13.428;2023-08-20T11:50:13;44.80;25.30
81488;DHT22;70897;52.464;13.428;2023-08-20T11:52:58;44.60;25.80
81488;DHT22;70897;52.464;13.428;2023-08-20T11:55:45;44.50;25.40
81488;DHT22;70897;52.464;13.428;2023-08-20T11:58:31;45.10;25.10
81488;DHT22;70897;52.464;13.428;2023-08-20T12:01:18;45.30;25.20
81488;DHT22;70897;52.464;13.428;2023-08-20T12:04:04;45.00;25.40
81488;DHT22;70897;52.464;13.428;2023-08-20T12:07:05;45.00;25.70
81488;DHT22;70897;52.464;13.428;2023-08-20T12:09:50;44.90;25.90
81488;DHT22;70897;52.464;13.428;2023-08-20T12:12:35;45.20;25.60
81488;DHT22;70897;52.464;13.428;2023-08-20T12:15:20;45.20;24.90
81488;DHT22;70897;52.464;13.428;2023-08-20T12:18:05;45.10;24.60
81488;DHT22;70897;52.464;13.428;2023-08-20T12:20:50;45.50;24.80
81488;DHT22;70897;52.464;13.428;2023-08-20T12:23:35;45.40;24.30
81488;DHT22;70897;52.464;13.428;2023-08-20T12:26:20;44.90;23.90
81488;DHT22;70897;52.464;13.428;2023-08-20T12:29:06;45.20;24.10
81488;DHT22;70897;52.464;13.428;2023-08-20T12:31:51;45.30;24.20
81488;DHT22;70897;52.464;13.428;2023-08-20T12:34:36;44.20;24.80
81488;DHT22;70897;52.464;13.428;2023-08-20T12:37:21;44.20;25.10
81488;DHT22;70897;52.464;13.428;2023-08-20T12:40:07;44.10;24.60
81488;DHT22;70897;52.464;13.428;2023-08-20T12:42:54;44.40;25.00
81488;DHT22;70897;52.464;13.428;2023-08-20T12:45:40;44.00;24.30
81488;DHT22;70897;52.464;13.428;2023-08-20T12:48:24;44.30;24.40
81488;DHT22;70897;52.464;13.428;2023-08-20T12:51:09;44.10;25.70
81488;DHT22;70897;52.464;13.428;2023-08-20T12:53:58;44.70;25.60
81488;DHT22;70897;52.464;13.428;2023-08-20T12:56:43;44.30;24.60
81488;DHT22;70897;52.464;13.428;2023-08-20T12:59:28;44.50;24.10
81488;DHT22;70897;52.464;13.428;2023-08-20T13:02:13;44.20;23.80
81488;DHT22;70897;52.464;13.428;2023-08-20T13:04:58;43.80;24.70
81488;DHT22;70897;52.464;13.428;2023-08-20T13:07:43;44.20;24.70
81488;DHT22;70897;52.464;13.428;2023-08-20T13:10:29;44.10;24.10
81488;DHT22;70897;52.464;13.428;2023-08-20T13:13:15;44.10;24.50
81488;DHT22;70897;52.464;13.428;2023-08-20T13:16:01;44.00;24.20
81488;DHT22;70897;52.464;13.428;2023-08-20T13:18:46;43.60;23.50
81488;DHT22;70897;52.464;13.428;2023-08-20T13:21:31;43.10;23.30
81488;DHT22;70897;52.464;13.428;2023-08-20T13:24:16;43.10;23.60
81488;DHT22;70897;52.464;13.428;2023-08-20T13:27:01;42.90;23.50
81488;DHT22;70897;52.464;13.428;2023-08-20T13:29:47;42.40;23.90
81488;DHT22;70897;52.464;13.428;2023-08-20T13:32:32;42.10;23.40
81488;DHT22;70897;52.464;13.428;2023-08-20T13:35:17;40.80;24.00
81488;DHT22;70897;52.464;13.428;2023-08-20T13:38:02;39.80;24.70
81488;DHT22;70897;52.464;13.428;2023-08-20T13:40:49;39.20;25.50
81488;DHT22;70897;52.464;13.428;2023-08-20T13:43:34;38.00;26.90
81488;DHT22;70897;52.464;13.428;2023-08-20T13:46:19;37.40;28.20
81488;DHT22;70897;52.464;13.428;2023-08-20T13:49:04;37.60;27.50
81488;DHT22;70897;52.464;13.428;2023-08-20T13:51:49;37.20;29.50
81488;DHT22;70897;52.464;13.428;2023-08-20T13:54:35;37.10;29.50
81488;DHT22;70897;52.464;13.428;2023-08-20T13:57:21;36.90;30.70
81488;DHT22;70897;52.464;13.428;2023-08-20T14:00:06;36.50;30.40
81488;DHT22;70897;52.464;13.428;2023-08-20T14:02:54;36.50;32.10
81488;DHT22;70897;52.464;13.428;2023-08-20T14:05:39;35.80;35.30
81488;DHT22;70897;52.464;13.428;2023-08-20T14:08:24;35.20;34.60
81488;DHT22;70897;52.464;13.428;2023-08-20T14:11:09;35.10;35.00
81488;DHT22;70897;52.464;13.428;2023-08-20T14:13:54;34.60;35.60
81488;DHT22;70897;52.464;13.428;2023-08-20T14:16:39;34.60;36.70
81488;DHT22;70897;52.464;13.428;2023-08-20T14:19:24;34.60;36.10
81488;DHT22;70897;52.464;13.428;2023-08-20T14:22:09;34.60;36.40
81488;DHT22;70897;52.464;13.428;2023-08-20T14:24:54;35.40;35.00
81488;DHT22;70897;52.464;13.428;2023-08-20T14:27:39;36.10;32.50
81488;DHT22;70897;52.464;13.428;2023-08-20T14:30:24;36.50;31.80
81488;DHT22;70897;52.464;13.428;2023-08-20T14:33:09;36.80;30.60
81488;DHT22;70897;52.464;13.428;2023-08-20T14:35:54;37.70;30.70
81488;DHT22;70897;52.464;13.428;2023-08-20T14:38:39;37.10;30.70
81488;DHT22;70897;52.464;13.428;2023-08-20T14:41:24;36.20;30.00
81488;DHT22;70897;52.464;13.428;2023-08-20T14:44:09;35.30;32.30
81488;DHT22;70897;52.464;13.428;2023-08-20T14:46:54;35.00;34.00
81488;DHT22;70897;52.464;13.428;2023-08-20T14:49:39;34.40;34.40
81488;DHT22;70897;52.464;13.428;2023-08-20T14:52:24;34.20;33.60
81488;DHT22;70897;52.464;13.428;2023-08-20T14:55:09;33.90;35.60
81488;DHT22;70897;52.464;13.428;2023-08-20T14:57:54;33.70;35.20
81488;DHT22;70897;52.464;13.428;2023-08-20T15:00:39;33.70;34.20
81488;DHT22;70897;52.464;13.428;2023-08-20T15:03:25;33.50;34.80
81488;DHT22;70897;52.464;13.428;2023-08-20T15:06:10;33.60;34.50
81488;DHT22;70897;52.464;13.428;2023-08-20T15:08:55;33.30;34.00
81488;DHT22;70897;52.464;13.428;2023-08-20T15:11:41;32.90;33.50
81488;DHT22;70897;52.464;13.428;2023-08-20T15:14:26;32.60;34.10
81488;DHT22;70897;52.464;13.428;2023-08-20T15:17:11;32.50;36.90
81488;DHT22;70897;52.464;13.428;2023-08-20T15:19:56;32.10;35.90
81488;DHT22;70897;52.464;13.428;2023-08-20T15:22:42;32.00;35.80
81488;DHT22;70897;52.464;13.428;2023-08-20T15:25:26;32.30;35.90
81488;DHT22;70897;52.464;13.428;2023-08-20T15:28:12;32.20;36.30
81488;DHT22;70897;52.464;13.428;2023-08-20T15:30:58;32.10;35.80
81488;DHT22;70897;52.464;13.428;2023-08-20T15:33:43;31.90;35.60
81488;DHT22;70897;52.464;13.428;2023-08-20T15:36:28;31.60;37.80
81488;DHT22;70897;52.464;13.428;2023-08-20T15:39:14;31.40;37.50
81488;DHT22;70897;52.464;13.428;2023-08-20T15:41:59;31.20;38.10
81488;DHT22;70897;52.464;13.428;2023-08-20T15:44:44;30.80;38.20
81488;DHT22;70897;52.464;13.428;2023-08-20T15:47:29;30.50;38.40
81488;DHT22;70897;52.464;13.428;2023-08-20T15:50:14;30.30;38.60
81488;DHT22;70897;52.464;13.428;2023-08-20T15:52:59;30.00;39.00
81488;DHT22;70897;52.464;13.428;2023-08-20T15:55:45;29.80;40.50
81488;DHT22;70897;52.464;13.428;2023-08-20T15:58:32;29.60;40.30
81488;DHT22;70897;52.464;13.428;2023-08-20T16:01:17;29.40;41.00
81488;DHT22;70897;52.464;13.428;2023-08-20T16:04:02;29.30;41.70
81488;DHT22;70897;52.464;13.428;2023-08-20T16:06:47;29.20;42.20
81488;DHT22;70897;52.464;13.428;2023-08-20T16:09:35;29.10;42.80
81488;DHT22;70897;52.464;13.428;2023-08-20T16:12:20;28.90;43.10
81488;DHT22;70897;52.464;13.428;2023-08-20T16:15:06;28.80;42.90
81488;DHT22;70897;52.464;13.428;2023-08-20T16:17:51;28.60;43.40
81488;DHT22;70897;52.464;13.428;2023-08-20T16:20:36;28.50;43.10
81488;DHT22;70897;52.464;13.428;2023-08-20T16:23:21;28.40;43.20
81488;DHT22;70897;52.464;13.428;2023-08-20T16:26:06;28.30;43.30
81488;DHT22;70897;52.464;13.428;2023-08-20T16:28:51;28.20;43.60
81488;DHT22;70897;52.464;13.428;2023-08-20T16:31:36;28.10;43.50
81488;DHT22;70897;52.464;13.428;2023-08-20T16:34:22;28.10;44.60
81488;DHT22;70897;52.464;13.428;2023-08-20T16:37:07;28.00;45.10
81488;DHT22;70897;52.464;13.428;2023-08-20T16:39:52;27.90;45.10
81488;DHT22;70897;52.464;13.428;2023-08-20T16:42:37;27.80;44.90
81488;DHT22;70897;52.464;13.428;2023-08-20T16:45:22;27.80;45.60
81488;DHT22;70897;52.464;13.428;2023-08-20T16:48:07;27.70;45.80
81488;DHT22;70897;52.464;13.428;2023-08-20T16:50:52;27.60;46.40
81488;DHT22;70897;52.464;13.428;2023-08-20T16:53:37;27.50;46.90
81488;DHT22;70897;52.464;13.428;2023-08-20T16:56:22;27.40;46.90
81488;DHT22;70897;52.464;13.428;2023-08-20T16:59:07;27.30;48.10
81488;DHT22;70897;52.464;13.428;2023-08-20T17:01:53;27.20;47.50
81488;DHT22;70897;52.464;13.428;2023-08-20T17:04:37;27.10;47.20
81488;DHT22;70897;52.464;13.428;2023-08-20T17:07:23;27.10;47.50
81488;DHT22;70897;52.464;13.428;2023-08-20T17:10:08;27.00;48.70
81488;DHT22;70897;52.464;13.428;2023-08-20T17:12:53;26.90;48.80
81488;DHT22;70897;52.464;13.428;2023-08-20T17:15:38;26.80;50.00
81488;DHT22;70897;52.464;13.428;2023-08-20T17:18:23;26.70;50.20
81488;DHT22;70897;52.464;13.428;2023-08-20T17:21:08;26.60;50.60